sensor_id;sensor_type;location;lat;lon;timestamp;P1;durP1;ratioP1;P2;durP2;ratioP2
33696;SDS011;20031;43.416;23.232;2023-03-05T00:00:08;34.75;;;16.60;;
33696;SDS011;20031;43.416;23.232;2023-03-05T00:02:34;32.55;;;16.60;;
33696;SDS011;20031;43.416;23.232;2023-03-05T00:05:00;31.73;;;15.85;;
33696;SDS011;20031;43.416;23.232;2023-03-05T00:07:25;34.22;;;15.88;;
33696;SDS011;20031;43.416;23.232;2023-03-05T00:09:51;32.58;;;15.48;;
33696;SDS011;20031;43.416;23.232;2023-03-05T00:12:16;32.10;;;15.48;;
33696;SDS011;20031;43.416;23.232;2023-03-05T00:14:42;34.25;;;15.98;;
33696;SDS011;20031;43.416;23.232;2023-03-05T00:17:08;35.08;;;15.35;;
33696;SDS011;20031;43.416;23.232;2023-03-05T00:19:33;30.40;;;15.18;;
33696;SDS011;20031;43.416;23.232;2023-03-05T00:21:58;29.92;;;15.10;;
33696;SDS011;20031;43.416;23.232;2023-03-05T00:24:24;34.92;;;16.48;;
33696;SDS011;20031;43.416;23.232;2023-03-05T00:26:49;36.40;;;16.23;;
33696;SDS011;20031;43.416;23.232;2023-03-05T00:29:16;29.95;;;16.50;;
33696;SDS011;20031;43.416;23.232;2023-03-05T00:31:43;35.03;;;17.25;;
33696;SDS011;20031;43.416;23.232;2023-03-05T00:34:10;29.17;;;16.90;;
33696;SDS011;20031;43.416;23.232;2023-03-05T00:36:38;29.35;;;16.45;;
33696;SDS011;20031;43.416;23.232;2023-03-05T00:39:04;32.40;;;16.80;;
33696;SDS011;20031;43.416;23.232;2023-03-05T00:41:30;34.45;;;16.13;;
33696;SDS011;20031;43.416;23.232;2023-03-05T00:43:55;33.22;;;15.95;;
33696;SDS011;20031;43.416;23.232;2023-03-05T00:46:21;32.08;;;15.93;;
33696;SDS011;20031;43.416;23.232;2023-03-05T00:48:47;34.70;;;17.83;;
33696;SDS011;20031;43.416;23.232;2023-03-05T00:51:12;48.90;;;23.23;;
33696;SDS011;20031;43.416;23.232;2023-03-05T00:53:38;35.95;;;18.75;;
33696;SDS011;20031;43.416;23.232;2023-03-05T00:56:03;47.28;;;22.45;;
33696;SDS011;20031;43.416;23.232;2023-03-05T00:58:29;45.65;;;19.65;;
33696;SDS011;20031;43.416;23.232;2023-03-05T01:00:58;34.03;;;18.02;;
33696;SDS011;20031;43.416;23.232;2023-03-05T01:03:24;32.65;;;16.15;;
33696;SDS011;20031;43.416;23.232;2023-03-05T01:05:50;26.65;;;14.77;;
33696;SDS011;20031;43.416;23.232;2023-03-05T01:08:15;32.92;;;16.67;;
33696;SDS011;20031;43.416;23.232;2023-03-05T01:10:41;39.58;;;21.90;;
33696;SDS011;20031;43.416;23.232;2023-03-05T01:13:07;43.00;;;21.38;;
33696;SDS011;20031;43.416;23.232;2023-03-05T01:15:32;43.20;;;20.60;;
33696;SDS011;20031;43.416;23.232;2023-03-05T01:17:58;31.92;;;15.35;;
33696;SDS011;20031;43.416;23.232;2023-03-05T01:20:23;29.17;;;17.17;;
33696;SDS011;20031;43.416;23.232;2023-03-05T01:22:48;34.00;;;16.98;;
33696;SDS011;20031;43.416;23.232;2023-03-05T01:25:14;32.25;;;16.63;;
33696;SDS011;20031;43.416;23.232;2023-03-05T01:27:41;26.30;;;14.85;;
33696;SDS011;20031;43.416;23.232;2023-03-05T01:30:07;33.38;;;15.30;;
33696;SDS011;20031;43.416;23.232;2023-03-05T01:32:35;29.00;;;15.75;;
33696;SDS011;20031;43.416;23.232;2023-03-05T01:35:01;32.33;;;14.18;;
33696;SDS011;20031;43.416;23.232;2023-03-05T01:37:28;31.10;;;14.73;;
33696;SDS011;20031;43.416;23.232;2023-03-05T01:39:53;29.73;;;14.65;;
33696;SDS011;20031;43.416;23.232;2023-03-05T01:42:19;28.05;;;14.60;;
33696;SDS011;20031;43.416;23.232;2023-03-05T01:44:58;24.15;;;13.13;;
33696;SDS011;20031;43.416;23.232;2023-03-05T01:47:26;31.58;;;14.15;;
33696;SDS011;20031;43.416;23.232;2023-03-05T01:49:52;32.20;;;15.35;;
33696;SDS011;20031;43.416;23.232;2023-03-05T01:52:19;29.70;;;14.77;;
33696;SDS011;20031;43.416;23.232;2023-03-05T01:54:57;30.20;;;15.38;;
33696;SDS011;20031;43.416;23.232;2023-03-05T01:57:47;33.78;;;15.02;;
33696;SDS011;20031;43.416;23.232;2023-03-05T02:00:17;26.45;;;14.60;;
33696;SDS011;20031;43.416;23.232;2023-03-05T02:02:48;32.53;;;14.35;;
33696;SDS011;20031;43.416;23.232;2023-03-05T02:05:17;30.35;;;14.20;;
33696;SDS011;20031;43.416;23.232;2023-03-05T02:07:55;29.30;;;13.95;;
33696;SDS011;20031;43.416;23.232;2023-03-05T02:10:22;30.90;;;14.32;;
33696;SDS011;20031;43.416;23.232;2023-03-05T02:12:49;33.80;;;14.23;;
33696;SDS011;20031;43.416;23.232;2023-03-05T02:15:17;27.63;;;13.98;;
33696;SDS011;20031;43.416;23.232;2023-03-05T02:17:43;27.30;;;13.93;;
33696;SDS011;20031;43.416;23.232;2023-03-05T02:20:11;27.20;;;14.00;;
33696;SDS011;20031;43.416;23.232;2023-03-05T02:22:41;30.25;;;13.73;;
33696;SDS011;20031;43.416;23.232;2023-03-05T02:27:37;29.48;;;14.00;;
33696;SDS011;20031;43.416;23.232;2023-03-05T02:30:07;30.27;;;13.95;;
33696;SDS011;20031;43.416;23.232;2023-03-05T02:32:33;26.83;;;13.15;;
33696;SDS011;20031;43.416;23.232;2023-03-05T02:34:58;28.33;;;14.13;;
33696;SDS011;20031;43.416;23.232;2023-03-05T02:37:24;27.70;;;14.25;;
33696;SDS011;20031;43.416;23.232;2023-03-05T02:39:49;30.02;;;14.27;;
33696;SDS011;20031;43.416;23.232;2023-03-05T02:42:15;29.92;;;13.43;;
33696;SDS011;20031;43.416;23.232;2023-03-05T02:44:40;24.75;;;13.77;;
33696;SDS011;20031;43.416;23.232;2023-03-05T02:47:05;30.08;;;13.85;;
33696;SDS011;20031;43.416;23.232;2023-03-05T02:49:31;27.98;;;13.93;;
33696;SDS011;20031;43.416;23.232;2023-03-05T02:51:56;30.83;;;13.50;;
33696;SDS011;20031;43.416;23.232;2023-03-05T02:54:22;29.63;;;13.23;;
33696;SDS011;20031;43.416;23.232;2023-03-05T02:56:47;25.77;;;13.40;;
33696;SDS011;20031;43.416;23.232;2023-03-05T02:59:13;28.35;;;13.23;;
33696;SDS011;20031;43.416;23.232;2023-03-05T03:01:39;28.10;;;13.48;;
33696;SDS011;20031;43.416;23.232;2023-03-05T03:04:04;23.95;;;12.85;;
33696;SDS011;20031;43.416;23.232;2023-03-05T03:06:29;25.23;;;12.93;;
33696;SDS011;20031;43.416;23.232;2023-03-05T03:08:55;27.95;;;13.60;;
33696;SDS011;20031;43.416;23.232;2023-03-05T03:11:21;26.17;;;13.15;;
33696;SDS011;20031;43.416;23.232;2023-03-05T03:13:47;26.80;;;13.07;;
33696;SDS011;20031;43.416;23.232;2023-03-05T03:16:13;25.77;;;13.48;;
33696;SDS011;20031;43.416;23.232;2023-03-05T03:18:39;24.92;;;13.00;;
33696;SDS011;20031;43.416;23.232;2023-03-05T03:21:05;30.60;;;13.35;;
33696;SDS011;20031;43.416;23.232;2023-03-05T03:23:31;23.25;;;13.02;;
33696;SDS011;20031;43.416;23.232;2023-03-05T03:25:57;24.95;;;12.73;;
33696;SDS011;20031;43.416;23.232;2023-03-05T03:28:23;31.08;;;14.10;;
33696;SDS011;20031;43.416;23.232;2023-03-05T03:30:48;26.90;;;12.65;;
33696;SDS011;20031;43.416;23.232;2023-03-05T03:33:14;25.50;;;13.38;;
33696;SDS011;20031;43.416;23.232;2023-03-05T03:35:42;26.98;;;13.52;;
33696;SDS011;20031;43.416;23.232;2023-03-05T03:38:09;24.08;;;12.93;;
33696;SDS011;20031;43.416;23.232;2023-03-05T03:40:36;24.77;;;12.95;;
33696;SDS011;20031;43.416;23.232;2023-03-05T03:43:02;29.15;;;12.95;;
33696;SDS011;20031;43.416;23.232;2023-03-05T03:45:28;25.45;;;13.32;;
33696;SDS011;20031;43.416;23.232;2023-03-05T03:47:53;24.90;;;12.30;;
33696;SDS011;20031;43.416;23.232;2023-03-05T03:50:19;27.77;;;13.85;;
33696;SDS011;20031;43.416;23.232;2023-03-05T03:52:45;23.77;;;13.38;;
33696;SDS011;20031;43.416;23.232;2023-03-05T03:55:11;24.92;;;13.63;;
33696;SDS011;20031;43.416;23.232;2023-03-05T03:57:37;24.90;;;13.30;;
33696;SDS011;20031;43.416;23.232;2023-03-05T04:00:03;28.63;;;13.02;;
33696;SDS011;20031;43.416;23.232;2023-03-05T04:02:34;25.17;;;12.55;;
33696;SDS011;20031;43.416;23.232;2023-03-05T04:04:59;23.92;;;12.80;;
33696;SDS011;20031;43.416;23.232;2023-03-05T04:07:25;26.10;;;13.27;;
33696;SDS011;20031;43.416;23.232;2023-03-05T04:09:50;28.02;;;12.93;;
33696;SDS011;20031;43.416;23.232;2023-03-05T04:12:16;26.70;;;14.00;;
33696;SDS011;20031;43.416;23.232;2023-03-05T04:14:46;25.10;;;13.70;;
33696;SDS011;20031;43.416;23.232;2023-03-05T04:17:12;29.55;;;14.70;;
33696;SDS011;20031;43.416;23.232;2023-03-05T04:19:39;25.60;;;14.80;;
33696;SDS011;20031;43.416;23.232;2023-03-05T04:22:06;29.95;;;14.40;;
33696;SDS011;20031;43.416;23.232;2023-03-05T04:24:35;27.45;;;14.75;;
33696;SDS011;20031;43.416;23.232;2023-03-05T04:27:00;28.48;;;15.23;;
33696;SDS011;20031;43.416;23.232;2023-03-05T04:29:26;30.10;;;14.98;;
33696;SDS011;20031;43.416;23.232;2023-03-05T04:31:51;32.97;;;15.27;;
33696;SDS011;20031;43.416;23.232;2023-03-05T04:34:16;28.33;;;14.77;;
33696;SDS011;20031;43.416;23.232;2023-03-05T04:36:42;29.85;;;15.02;;
33696;SDS011;20031;43.416;23.232;2023-03-05T04:39:07;28.70;;;14.48;;
33696;SDS011;20031;43.416;23.232;2023-03-05T04:41:33;30.67;;;15.10;;
33696;SDS011;20031;43.416;23.232;2023-03-05T04:43:58;32.88;;;14.80;;
33696;SDS011;20031;43.416;23.232;2023-03-05T04:46:24;27.50;;;15.13;;
33696;SDS011;20031;43.416;23.232;2023-03-05T04:48:49;29.67;;;14.82;;
33696;SDS011;20031;43.416;23.232;2023-03-05T04:51:15;27.30;;;14.40;;
33696;SDS011;20031;43.416;23.232;2023-03-05T04:53:40;27.92;;;14.30;;
33696;SDS011;20031;43.416;23.232;2023-03-05T04:56:06;26.65;;;14.13;;
33696;SDS011;20031;43.416;23.232;2023-03-05T04:58:31;25.95;;;14.43;;
33696;SDS011;20031;43.416;23.232;2023-03-05T05:01:03;32.97;;;14.55;;
33696;SDS011;20031;43.416;23.232;2023-03-05T05:03:29;28.73;;;13.85;;
33696;SDS011;20031;43.416;23.232;2023-03-05T05:05:56;33.75;;;14.68;;
33696;SDS011;20031;43.416;23.232;2023-03-05T05:08:23;27.48;;;14.52;;
33696;SDS011;20031;43.416;23.232;2023-03-05T05:10:58;31.08;;;14.85;;
33696;SDS011;20031;43.416;23.232;2023-03-05T05:13:25;27.35;;;14.00;;
33696;SDS011;20031;43.416;23.232;2023-03-05T05:15:51;28.20;;;14.30;;
33696;SDS011;20031;43.416;23.232;2023-03-05T05:18:16;29.77;;;15.82;;
33696;SDS011;20031;43.416;23.232;2023-03-05T05:20:42;28.42;;;14.85;;
33696;SDS011;20031;43.416;23.232;2023-03-05T05:23:07;29.27;;;15.48;;
33696;SDS011;20031;43.416;23.232;2023-03-05T05:25:33;28.85;;;15.10;;
33696;SDS011;20031;43.416;23.232;2023-03-05T05:27:58;27.42;;;14.57;;
33696;SDS011;20031;43.416;23.232;2023-03-05T05:30:24;28.70;;;15.43;;
33696;SDS011;20031;43.416;23.232;2023-03-05T05:32:49;26.70;;;14.80;;
33696;SDS011;20031;43.416;23.232;2023-03-05T05:35:15;30.90;;;14.88;;
33696;SDS011;20031;43.416;23.232;2023-03-05T05:37:40;30.27;;;15.60;;
33696;SDS011;20031;43.416;23.232;2023-03-05T05:40:06;26.33;;;13.88;;
33696;SDS011;20031;43.416;23.232;2023-03-05T05:42:32;33.80;;;15.75;;
33696;SDS011;20031;43.416;23.232;2023-03-05T05:44:58;33.28;;;16.50;;
33696;SDS011;20031;43.416;23.232;2023-03-05T05:47:24;35.00;;;16.33;;
33696;SDS011;20031;43.416;23.232;2023-03-05T05:49:49;31.88;;;16.48;;
33696;SDS011;20031;43.416;23.232;2023-03-05T05:52:15;29.33;;;16.02;;
33696;SDS011;20031;43.416;23.232;2023-03-05T05:54:40;33.33;;;17.25;;
33696;SDS011;20031;43.416;23.232;2023-03-05T05:57:06;33.15;;;17.17;;
33696;SDS011;20031;43.416;23.232;2023-03-05T05:59:31;30.77;;;17.05;;
33696;SDS011;20031;43.416;23.232;2023-03-05T06:01:57;32.97;;;17.83;;
33696;SDS011;20031;43.416;23.232;2023-03-05T06:04:23;33.83;;;17.15;;
33696;SDS011;20031;43.416;23.232;2023-03-05T06:06:49;34.63;;;17.85;;
33696;SDS011;20031;43.416;23.232;2023-03-05T06:09:14;32.70;;;17.52;;
33696;SDS011;20031;43.416;23.232;2023-03-05T06:11:40;38.28;;;17.73;;
33696;SDS011;20031;43.416;23.232;2023-03-05T06:14:06;34.70;;;17.58;;
33696;SDS011;20031;43.416;23.232;2023-03-05T06:16:32;35.40;;;17.52;;
33696;SDS011;20031;43.416;23.232;2023-03-05T06:18:58;33.30;;;17.17;;
33696;SDS011;20031;43.416;23.232;2023-03-05T06:21:24;38.40;;;17.55;;
33696;SDS011;20031;43.416;23.232;2023-03-05T06:23:50;38.72;;;18.92;;
33696;SDS011;20031;43.416;23.232;2023-03-05T06:26:17;36.80;;;17.83;;
33696;SDS011;20031;43.416;23.232;2023-03-05T06:28:44;32.35;;;16.83;;
33696;SDS011;20031;43.416;23.232;2023-03-05T06:31:11;35.75;;;18.10;;
33696;SDS011;20031;43.416;23.232;2023-03-05T06:33:41;37.45;;;17.35;;
33696;SDS011;20031;43.416;23.232;2023-03-05T06:36:07;32.22;;;17.45;;
33696;SDS011;20031;43.416;23.232;2023-03-05T06:38:35;33.50;;;18.23;;
33696;SDS011;20031;43.416;23.232;2023-03-05T06:41:01;37.53;;;17.77;;
33696;SDS011;20031;43.416;23.232;2023-03-05T06:43:30;35.67;;;18.10;;
33696;SDS011;20031;43.416;23.232;2023-03-05T06:46:17;33.70;;;17.02;;
33696;SDS011;20031;43.416;23.232;2023-03-05T06:48:45;32.15;;;16.10;;
33696;SDS011;20031;43.416;23.232;2023-03-05T06:51:12;31.60;;;16.70;;
33696;SDS011;20031;43.416;23.232;2023-03-05T06:53:42;33.75;;;17.55;;
33696;SDS011;20031;43.416;23.232;2023-03-05T06:56:09;35.40;;;17.70;;
33696;SDS011;20031;43.416;23.232;2023-03-05T06:58:35;36.47;;;17.75;;
33696;SDS011;20031;43.416;23.232;2023-03-05T07:01:00;38.20;;;17.48;;
33696;SDS011;20031;43.416;23.232;2023-03-05T07:03:30;33.38;;;17.90;;
33696;SDS011;20031;43.416;23.232;2023-03-05T07:05:55;33.15;;;18.77;;
33696;SDS011;20031;43.416;23.232;2023-03-05T07:08:20;41.45;;;18.83;;
33696;SDS011;20031;43.416;23.232;2023-03-05T07:10:46;39.30;;;19.85;;
33696;SDS011;20031;43.416;23.232;2023-03-05T07:13:11;40.28;;;20.10;;
33696;SDS011;20031;43.416;23.232;2023-03-05T07:15:37;48.85;;;20.17;;
33696;SDS011;20031;43.416;23.232;2023-03-05T07:18:04;37.15;;;19.77;;
33696;SDS011;20031;43.416;23.232;2023-03-05T07:20:32;58.80;;;25.05;;
33696;SDS011;20031;43.416;23.232;2023-03-05T07:22:59;56.58;;;30.50;;
33696;SDS011;20031;43.416;23.232;2023-03-05T07:25:24;53.33;;;26.80;;
33696;SDS011;20031;43.416;23.232;2023-03-05T07:27:50;53.40;;;25.98;;
33696;SDS011;20031;43.416;23.232;2023-03-05T07:30:16;45.20;;;22.90;;
33696;SDS011;20031;43.416;23.232;2023-03-05T07:32:41;49.28;;;22.40;;
33696;SDS011;20031;43.416;23.232;2023-03-05T07:35:07;39.92;;;21.70;;
33696;SDS011;20031;43.416;23.232;2023-03-05T07:37:33;38.67;;;20.73;;
33696;SDS011;20031;43.416;23.232;2023-03-05T07:39:58;39.38;;;20.08;;
33696;SDS011;20031;43.416;23.232;2023-03-05T07:42:24;41.72;;;20.58;;
33696;SDS011;20031;43.416;23.232;2023-03-05T07:44:49;32.65;;;16.50;;
33696;SDS011;20031;43.416;23.232;2023-03-05T07:47:15;31.98;;;15.98;;
33696;SDS011;20031;43.416;23.232;2023-03-05T07:49:41;28.27;;;14.52;;
33696;SDS011;20031;43.416;23.232;2023-03-05T07:52:07;32.17;;;16.50;;
33696;SDS011;20031;43.416;23.232;2023-03-05T07:54:33;28.00;;;14.23;;
33696;SDS011;20031;43.416;23.232;2023-03-05T07:57:03;28.27;;;14.85;;
33696;SDS011;20031;43.416;23.232;2023-03-05T07:59:29;30.77;;;15.88;;
33696;SDS011;20031;43.416;23.232;2023-03-05T08:01:55;32.03;;;13.60;;
33696;SDS011;20031;43.416;23.232;2023-03-05T08:04:21;25.35;;;13.77;;
33696;SDS011;20031;43.416;23.232;2023-03-05T08:06:46;31.45;;;14.95;;
33696;SDS011;20031;43.416;23.232;2023-03-05T08:09:13;31.45;;;14.90;;
33696;SDS011;20031;43.416;23.232;2023-03-05T08:11:40;30.67;;;14.85;;
33696;SDS011;20031;43.416;23.232;2023-03-05T08:14:05;24.75;;;14.50;;
33696;SDS011;20031;43.416;23.232;2023-03-05T08:16:31;27.48;;;15.32;;
33696;SDS011;20031;43.416;23.232;2023-03-05T08:18:57;29.90;;;14.60;;
33696;SDS011;20031;43.416;23.232;2023-03-05T08:21:24;29.17;;;15.80;;
33696;SDS011;20031;43.416;23.232;2023-03-05T08:23:53;33.83;;;16.83;;
33696;SDS011;20031;43.416;23.232;2023-03-05T08:26:20;37.33;;;16.67;;
33696;SDS011;20031;43.416;23.232;2023-03-05T08:28:47;30.77;;;14.57;;
33696;SDS011;20031;43.416;23.232;2023-03-05T08:31:13;38.63;;;16.20;;
33696;SDS011;20031;43.416;23.232;2023-03-05T08:33:40;31.15;;;16.63;;
33696;SDS011;20031;43.416;23.232;2023-03-05T08:36:07;29.83;;;15.05;;
33696;SDS011;20031;43.416;23.232;2023-03-05T08:38:33;33.28;;;15.55;;
33696;SDS011;20031;43.416;23.232;2023-03-05T08:40:59;31.67;;;14.30;;
33696;SDS011;20031;43.416;23.232;2023-03-05T08:43:24;28.83;;;15.13;;
33696;SDS011;20031;43.416;23.232;2023-03-05T08:45:50;32.72;;;17.05;;
33696;SDS011;20031;43.416;23.232;2023-03-05T08:48:17;33.00;;;16.08;;
33696;SDS011;20031;43.416;23.232;2023-03-05T08:50:43;24.23;;;11.80;;
33696;SDS011;20031;43.416;23.232;2023-03-05T08:53:09;27.52;;;14.65;;
33696;SDS011;20031;43.416;23.232;2023-03-05T08:55:34;32.35;;;14.68;;
33696;SDS011;20031;43.416;23.232;2023-03-05T08:58:01;28.48;;;15.43;;
33696;SDS011;20031;43.416;23.232;2023-03-05T09:00:27;31.58;;;15.50;;
33696;SDS011;20031;43.416;23.232;2023-03-05T09:02:52;25.15;;;14.18;;
33696;SDS011;20031;43.416;23.232;2023-03-05T09:05:19;27.42;;;13.38;;
33696;SDS011;20031;43.416;23.232;2023-03-05T09:07:44;31.08;;;14.05;;
33696;SDS011;20031;43.416;23.232;2023-03-05T09:10:10;30.30;;;14.70;;
33696;SDS011;20031;43.416;23.232;2023-03-05T09:12:38;27.05;;;14.52;;
33696;SDS011;20031;43.416;23.232;2023-03-05T09:15:07;28.58;;;14.45;;
33696;SDS011;20031;43.416;23.232;2023-03-05T09:17:35;26.23;;;14.50;;
33696;SDS011;20031;43.416;23.232;2023-03-05T09:20:01;27.73;;;15.32;;
33696;SDS011;20031;43.416;23.232;2023-03-05T09:22:28;33.85;;;15.65;;
33696;SDS011;20031;43.416;23.232;2023-03-05T09:24:53;32.78;;;15.05;;
33696;SDS011;20031;43.416;23.232;2023-03-05T09:27:19;24.42;;;14.15;;
33696;SDS011;20031;43.416;23.232;2023-03-05T09:29:44;30.70;;;15.73;;
33696;SDS011;20031;43.416;23.232;2023-03-05T09:32:10;30.48;;;14.57;;
33696;SDS011;20031;43.416;23.232;2023-03-05T09:34:35;33.10;;;15.55;;
33696;SDS011;20031;43.416;23.232;2023-03-05T09:37:01;38.72;;;19.45;;
33696;SDS011;20031;43.416;23.232;2023-03-05T09:39:27;30.25;;;14.57;;
33696;SDS011;20031;43.416;23.232;2023-03-05T09:44:50;29.38;;;15.30;;
33696;SDS011;20031;43.416;23.232;2023-03-05T09:53:06;28.77;;;13.88;;
33696;SDS011;20031;43.416;23.232;2023-03-05T09:55:36;29.52;;;16.38;;
33696;SDS011;20031;43.416;23.232;2023-03-05T09:58:51;28.10;;;13.98;;
33696;SDS011;20031;43.416;23.232;2023-03-05T10:01:09;31.20;;;14.40;;
33696;SDS011;20031;43.416;23.232;2023-03-05T10:12:11;26.10;;;13.70;;
33696;SDS011;20031;43.416;23.232;2023-03-05T10:14:58;24.50;;;13.15;;
33696;SDS011;20031;43.416;23.232;2023-03-05T10:25:33;25.50;;;12.93;;
33696;SDS011;20031;43.416;23.232;2023-03-05T10:28:24;29.23;;;13.70;;
33696;SDS011;20031;43.416;23.232;2023-03-05T10:37:34;31.00;;;13.35;;
33696;SDS011;20031;43.416;23.232;2023-03-05T10:42:52;26.25;;;12.70;;
33696;SDS011;20031;43.416;23.232;2023-03-05T10:45:39;25.42;;;11.90;;
33696;SDS011;20031;43.416;23.232;2023-03-05T10:51:04;25.58;;;12.75;;
33696;SDS011;20031;43.416;23.232;2023-03-05T10:53:58;32.10;;;16.08;;
33696;SDS011;20031;43.416;23.232;2023-03-05T10:56:38;35.30;;;16.23;;
33696;SDS011;20031;43.416;23.232;2023-03-05T10:59:03;51.83;;;26.67;;
33696;SDS011;20031;43.416;23.232;2023-03-05T11:01:29;29.65;;;14.23;;
33696;SDS011;20031;43.416;23.232;2023-03-05T11:03:57;27.52;;;13.15;;
33696;SDS011;20031;43.416;23.232;2023-03-05T11:06:48;27.92;;;13.20;;
33696;SDS011;20031;43.416;23.232;2023-03-05T11:09:30;30.20;;;13.68;;
33696;SDS011;20031;43.416;23.232;2023-03-05T11:23:01;31.25;;;14.63;;
33696;SDS011;20031;43.416;23.232;2023-03-05T11:25:33;34.20;;;16.85;;
33696;SDS011;20031;43.416;23.232;2023-03-05T11:28:00;28.40;;;14.65;;
33696;SDS011;20031;43.416;23.232;2023-03-05T11:30:31;38.95;;;18.25;;
33696;SDS011;20031;43.416;23.232;2023-03-05T11:33:08;30.50;;;12.82;;
33696;SDS011;20031;43.416;23.232;2023-03-05T11:35:38;28.13;;;12.25;;
33696;SDS011;20031;43.416;23.232;2023-03-05T11:38:10;23.75;;;12.15;;
33696;SDS011;20031;43.416;23.232;2023-03-05T11:40:48;43.05;;;17.17;;
33696;SDS011;20031;43.416;23.232;2023-03-05T11:43:17;25.88;;;13.25;;
33696;SDS011;20031;43.416;23.232;2023-03-05T11:45:44;28.60;;;12.93;;
33696;SDS011;20031;43.416;23.232;2023-03-05T11:48:20;36.85;;;16.25;;
33696;SDS011;20031;43.416;23.232;2023-03-05T11:50:59;25.58;;;12.40;;
33696;SDS011;20031;43.416;23.232;2023-03-05T11:53:28;33.35;;;14.13;;
33696;SDS011;20031;43.416;23.232;2023-03-05T12:01:13;32.58;;;16.00;;
33696;SDS011;20031;43.416;23.232;2023-03-05T12:03:41;31.10;;;15.63;;
33696;SDS011;20031;43.416;23.232;2023-03-05T12:06:09;65.90;;;27.30;;
33696;SDS011;20031;43.416;23.232;2023-03-05T12:08:50;25.13;;;13.75;;
33696;SDS011;20031;43.416;23.232;2023-03-05T12:11:25;34.00;;;15.48;;
33696;SDS011;20031;43.416;23.232;2023-03-05T12:13:56;36.00;;;15.82;;
33696;SDS011;20031;43.416;23.232;2023-03-05T12:16:33;26.23;;;13.23;;
33696;SDS011;20031;43.416;23.232;2023-03-05T12:21:54;33.03;;;14.10;;
33696;SDS011;20031;43.416;23.232;2023-03-05T12:32:04;35.75;;;16.60;;
33696;SDS011;20031;43.416;23.232;2023-03-05T12:34:56;30.02;;;14.32;;
33696;SDS011;20031;43.416;23.232;2023-03-05T12:39:57;49.22;;;20.15;;
33696;SDS011;20031;43.416;23.232;2023-03-05T12:43:02;28.38;;;12.90;;
33696;SDS011;20031;43.416;23.232;2023-03-05T12:45:47;24.77;;;13.43;;
33696;SDS011;20031;43.416;23.232;2023-03-05T12:55:29;30.88;;;13.98;;
33696;SDS011;20031;43.416;23.232;2023-03-05T13:03:16;21.40;;;11.25;;
33696;SDS011;20031;43.416;23.232;2023-03-05T13:05:52;18.20;;;9.43;;
33696;SDS011;20031;43.416;23.232;2023-03-05T13:08:20;27.52;;;10.77;;
33696;SDS011;20031;43.416;23.232;2023-03-05T13:13:31;30.33;;;13.38;;
33696;SDS011;20031;43.416;23.232;2023-03-05T13:16:00;31.52;;;12.20;;
33696;SDS011;20031;43.416;23.232;2023-03-05T13:18:27;22.70;;;12.27;;
33696;SDS011;20031;43.416;23.232;2023-03-05T13:21:04;30.77;;;14.38;;
33696;SDS011;20031;43.416;23.232;2023-03-05T13:23:32;27.13;;;13.70;;
33696;SDS011;20031;43.416;23.232;2023-03-05T13:28:34;22.00;;;10.40;;
33696;SDS011;20031;43.416;23.232;2023-03-05T13:31:08;22.92;;;11.38;;
33696;SDS011;20031;43.416;23.232;2023-03-05T13:33:35;36.75;;;15.95;;
33696;SDS011;20031;43.416;23.232;2023-03-05T13:36:01;30.08;;;13.23;;
33696;SDS011;20031;43.416;23.232;2023-03-05T13:38:39;36.72;;;14.77;;
33696;SDS011;20031;43.416;23.232;2023-03-05T13:43:56;25.58;;;12.00;;
33696;SDS011;20031;43.416;23.232;2023-03-05T13:48:57;21.83;;;11.18;;
33696;SDS011;20031;43.416;23.232;2023-03-05T13:51:42;22.52;;;10.02;;
33696;SDS011;20031;43.416;23.232;2023-03-05T13:54:11;29.83;;;8.30;;
33696;SDS011;20031;43.416;23.232;2023-03-05T13:56:47;20.35;;;10.98;;
33696;SDS011;20031;43.416;23.232;2023-03-05T13:59:18;18.02;;;9.50;;
33696;SDS011;20031;43.416;23.232;2023-03-05T14:01:45;20.08;;;9.95;;
33696;SDS011;20031;43.416;23.232;2023-03-05T14:06:41;15.38;;;8.90;;
33696;SDS011;20031;43.416;23.232;2023-03-05T14:11:54;18.65;;;7.22;;
33696;SDS011;20031;43.416;23.232;2023-03-05T14:14:22;23.45;;;9.82;;
33696;SDS011;20031;43.416;23.232;2023-03-05T14:16:49;19.13;;;9.40;;
33696;SDS011;20031;43.416;23.232;2023-03-05T14:22:03;19.63;;;10.30;;
33696;SDS011;20031;43.416;23.232;2023-03-05T14:24:30;18.05;;;9.98;;
33696;SDS011;20031;43.416;23.232;2023-03-05T14:26:58;17.98;;;8.60;;
33696;SDS011;20031;43.416;23.232;2023-03-05T14:29:27;17.27;;;9.05;;
33696;SDS011;20031;43.416;23.232;2023-03-05T14:31:55;18.42;;;9.52;;
33696;SDS011;20031;43.416;23.232;2023-03-05T14:36:59;18.45;;;7.95;;
33696;SDS011;20031;43.416;23.232;2023-03-05T14:42:20;18.13;;;8.90;;
33696;SDS011;20031;43.416;23.232;2023-03-05T14:44:48;22.20;;;9.38;;
33696;SDS011;20031;43.416;23.232;2023-03-05T14:47:14;26.70;;;11.45;;
33696;SDS011;20031;43.416;23.232;2023-03-05T14:49:39;33.83;;;12.85;;
33696;SDS011;20031;43.416;23.232;2023-03-05T14:52:05;33.80;;;12.13;;
33696;SDS011;20031;43.416;23.232;2023-03-05T14:54:31;21.73;;;10.43;;
33696;SDS011;20031;43.416;23.232;2023-03-05T14:57:01;26.67;;;10.02;;
33696;SDS011;20031;43.416;23.232;2023-03-05T14:59:28;19.73;;;10.57;;
33696;SDS011;20031;43.416;23.232;2023-03-05T15:01:54;38.88;;;15.05;;
33696;SDS011;20031;43.416;23.232;2023-03-05T15:04:19;18.85;;;8.43;;
33696;SDS011;20031;43.416;23.232;2023-03-05T15:06:45;15.25;;;9.38;;
33696;SDS011;20031;43.416;23.232;2023-03-05T15:09:14;21.30;;;8.90;;
33696;SDS011;20031;43.416;23.232;2023-03-05T15:11:42;16.20;;;7.65;;
33696;SDS011;20031;43.416;23.232;2023-03-05T15:14:08;23.83;;;10.68;;
33696;SDS011;20031;43.416;23.232;2023-03-05T15:16:34;23.23;;;11.10;;
33696;SDS011;20031;43.416;23.232;2023-03-05T15:18:59;17.65;;;8.75;;
33696;SDS011;20031;43.416;23.232;2023-03-05T15:21:27;23.33;;;10.82;;
33696;SDS011;20031;43.416;23.232;2023-03-05T15:23:53;25.45;;;11.63;;
33696;SDS011;20031;43.416;23.232;2023-03-05T15:26:18;22.38;;;11.02;;
33696;SDS011;20031;43.416;23.232;2023-03-05T15:28:45;18.27;;;8.35;;
33696;SDS011;20031;43.416;23.232;2023-03-05T15:31:11;30.25;;;12.00;;
33696;SDS011;20031;43.416;23.232;2023-03-05T15:33:37;29.67;;;12.63;;
33696;SDS011;20031;43.416;23.232;2023-03-05T15:36:03;29.27;;;12.57;;
33696;SDS011;20031;43.416;23.232;2023-03-05T15:38:29;23.00;;;11.82;;
33696;SDS011;20031;43.416;23.232;2023-03-05T15:40:54;21.30;;;10.80;;
33696;SDS011;20031;43.416;23.232;2023-03-05T15:43:20;22.17;;;11.20;;
33696;SDS011;20031;43.416;23.232;2023-03-05T15:45:45;23.02;;;12.70;;
33696;SDS011;20031;43.416;23.232;2023-03-05T15:48:11;14.70;;;9.05;;
33696;SDS011;20031;43.416;23.232;2023-03-05T15:50:40;17.52;;;8.50;;
33696;SDS011;20031;43.416;23.232;2023-03-05T15:53:07;17.70;;;9.48;;
33696;SDS011;20031;43.416;23.232;2023-03-05T15:55:36;23.00;;;9.02;;
33696;SDS011;20031;43.416;23.232;2023-03-05T15:58:05;16.42;;;9.70;;
33696;SDS011;20031;43.416;23.232;2023-03-05T16:00:31;20.73;;;9.88;;